sensor_id;sensor_type;location;lat;lon;timestamp;P1;durP1;ratioP1;P2;durP2;ratioP2
70832;SDS011;71099;59.528;17.886;2024-01-25T00:01:22;4.32;;;1.20;;
70832;SDS011;71099;59.528;17.886;2024-01-25T00:03:48;1.20;;;1.10;;
70832;SDS011;71099;59.528;17.886;2024-01-25T00:06:13;1.13;;;1.00;;
70832;SDS011;71099;59.528;17.886;2024-01-25T00:08:39;1.40;;;1.10;;
70832;SDS011;71099;59.528;17.886;2024-01-25T00:11:04;1.33;;;1.02;;
70832;SDS011;71099;59.528;17.886;2024-01-25T00:13:30;2.33;;;0.98;;
70832;SDS011;71099;59.528;17.886;2024-01-25T00:15:55;1.48;;;1.30;;
70832;SDS011;71099;59.528;17.886;2024-01-25T00:18:21;1.38;;;1.17;;
70832;SDS011;71099;59.528;17.886;2024-01-25T00:20:46;2.42;;;1.17;;
70832;SDS011;71099;59.528;17.886;2024-01-25T00:23:12;3.03;;;2.05;;
70832;SDS011;71099;59.528;17.886;2024-01-25T00:25:37;2.83;;;2.38;;
70832;SDS011;71099;59.528;17.886;2024-01-25T00:28:03;3.05;;;2.08;;
70832;SDS011;71099;59.528;17.886;2024-01-25T00:30:28;3.22;;;1.98;;
70832;SDS011;71099;59.528;17.886;2024-01-25T00:32:54;3.35;;;1.80;;
70832;SDS011;71099;59.528;17.886;2024-01-25T00:35:21;2.60;;;1.83;;
70832;SDS011;71099;59.528;17.886;2024-01-25T00:37:46;2.38;;;2.15;;
70832;SDS011;71099;59.528;17.886;2024-01-25T00:40:12;3.10;;;2.08;;
70832;SDS011;71099;59.528;17.886;2024-01-25T00:42:42;2.05;;;1.85;;
70832;SDS011;71099;59.528;17.886;2024-01-25T00:45:09;4.20;;;2.55;;
70832;SDS011;71099;59.528;17.886;2024-01-25T00:47:35;1.60;;;1.50;;
70832;SDS011;71099;59.528;17.886;2024-01-25T00:50:01;2.42;;;1.83;;
70832;SDS011;71099;59.528;17.886;2024-01-25T00:52:27;1.50;;;1.40;;
70832;SDS011;71099;59.528;17.886;2024-01-25T00:54:53;2.28;;;1.83;;
70832;SDS011;71099;59.528;17.886;2024-01-25T00:57:18;1.80;;;1.70;;
70832;SDS011;71099;59.528;17.886;2024-01-25T00:59:44;1.80;;;1.52;;
70832;SDS011;71099;59.528;17.886;2024-01-25T01:02:11;4.25;;;1.77;;
70832;SDS011;71099;59.528;17.886;2024-01-25T01:04:38;3.90;;;1.85;;
70832;SDS011;71099;59.528;17.886;2024-01-25T01:07:04;2.13;;;1.67;;
70832;SDS011;71099;59.528;17.886;2024-01-25T01:09:30;1.75;;;1.23;;
70832;SDS011;71099;59.528;17.886;2024-01-25T01:11:55;2.28;;;1.50;;
70832;SDS011;71099;59.528;17.886;2024-01-25T01:14:21;2.47;;;1.65;;
70832;SDS011;71099;59.528;17.886;2024-01-25T01:16:46;3.67;;;1.92;;
70832;SDS011;71099;59.528;17.886;2024-01-25T01:19:11;1.70;;;1.60;;
70832;SDS011;71099;59.528;17.886;2024-01-25T01:21:37;3.47;;;1.80;;
70832;SDS011;71099;59.528;17.886;2024-01-25T01:24:03;2.65;;;1.70;;
70832;SDS011;71099;59.528;17.886;2024-01-25T01:26:29;3.33;;;2.20;;
70832;SDS011;71099;59.528;17.886;2024-01-25T01:28:55;5.38;;;2.17;;
70832;SDS011;71099;59.528;17.886;2024-01-25T01:31:20;3.75;;;2.50;;
70832;SDS011;71099;59.528;17.886;2024-01-25T01:33:46;2.25;;;1.90;;
70832;SDS011;71099;59.528;17.886;2024-01-25T01:36:11;3.30;;;1.98;;
70832;SDS011;71099;59.528;17.886;2024-01-25T01:38:37;3.72;;;2.50;;
70832;SDS011;71099;59.528;17.886;2024-01-25T01:41:02;5.07;;;2.33;;
70832;SDS011;71099;59.528;17.886;2024-01-25T01:43:28;5.25;;;2.53;;
70832;SDS011;71099;59.528;17.886;2024-01-25T01:45:54;3.60;;;2.28;;
70832;SDS011;71099;59.528;17.886;2024-01-25T01:48:26;3.53;;;2.42;;
70832;SDS011;71099;59.528;17.886;2024-01-25T01:50:51;5.50;;;2.33;;
70832;SDS011;71099;59.528;17.886;2024-01-25T01:53:17;2.50;;;2.30;;
70832;SDS011;71099;59.528;17.886;2024-01-25T01:55:43;6.20;;;2.35;;
70832;SDS011;71099;59.528;17.886;2024-01-25T01:58:08;3.38;;;2.13;;
70832;SDS011;71099;59.528;17.886;2024-01-25T02:00:34;2.67;;;2.10;;
70832;SDS011;71099;59.528;17.886;2024-01-25T02:03:02;4.45;;;2.53;;
70832;SDS011;71099;59.528;17.886;2024-01-25T02:05:28;4.72;;;1.70;;
70832;SDS011;71099;59.528;17.886;2024-01-25T02:07:53;4.38;;;1.90;;
70832;SDS011;71099;59.528;17.886;2024-01-25T02:10:19;4.80;;;1.75;;
70832;SDS011;71099;59.528;17.886;2024-01-25T02:12:44;5.70;;;2.30;;
70832;SDS011;71099;59.528;17.886;2024-01-25T02:15:10;2.55;;;1.70;;
70832;SDS011;71099;59.528;17.886;2024-01-25T02:17:35;2.65;;;1.52;;
70832;SDS011;71099;59.528;17.886;2024-01-25T02:20:01;4.70;;;1.60;;
70832;SDS011;71099;59.528;17.886;2024-01-25T02:22:28;2.60;;;1.60;;
70832;SDS011;71099;59.528;17.886;2024-01-25T02:24:53;4.28;;;1.40;;
70832;SDS011;71099;59.528;17.886;2024-01-25T02:27:19;2.40;;;1.42;;
70832;SDS011;71099;59.528;17.886;2024-01-25T02:29:44;2.10;;;1.40;;
70832;SDS011;71099;59.528;17.886;2024-01-25T02:32:10;3.45;;;1.15;;
70832;SDS011;71099;59.528;17.886;2024-01-25T02:34:35;2.53;;;0.93;;
70832;SDS011;71099;59.528;17.886;2024-01-25T02:37:01;5.35;;;1.55;;
70832;SDS011;71099;59.528;17.886;2024-01-25T02:39:26;2.95;;;1.35;;
70832;SDS011;71099;59.528;17.886;2024-01-25T02:41:52;1.75;;;1.25;;
70832;SDS011;71099;59.528;17.886;2024-01-25T02:44:17;1.70;;;1.40;;
70832;SDS011;71099;59.528;17.886;2024-01-25T02:46:43;4.13;;;1.25;;
70832;SDS011;71099;59.528;17.886;2024-01-25T02:49:10;1.98;;;0.93;;
70832;SDS011;71099;59.528;17.886;2024-01-25T02:51:35;4.10;;;1.30;;
70832;SDS011;71099;59.528;17.886;2024-01-25T02:54:00;2.05;;;0.80;;
70832;SDS011;71099;59.528;17.886;2024-01-25T02:56:26;1.60;;;1.23;;
70832;SDS011;71099;59.528;17.886;2024-01-25T02:58:58;1.10;;;0.73;;
70832;SDS011;71099;59.528;17.886;2024-01-25T03:01:24;3.13;;;1.20;;
70832;SDS011;71099;59.528;17.886;2024-01-25T03:03:49;1.30;;;0.85;;
70832;SDS011;71099;59.528;17.886;2024-01-25T03:06:14;2.97;;;1.00;;
70832;SDS011;71099;59.528;17.886;2024-01-25T03:08:40;1.63;;;1.00;;
70832;SDS011;71099;59.528;17.886;2024-01-25T03:11:06;3.20;;;1.10;;
70832;SDS011;71099;59.528;17.886;2024-01-25T03:13:31;3.45;;;1.50;;
70832;SDS011;71099;59.528;17.886;2024-01-25T03:15:57;4.03;;;1.65;;
70832;SDS011;71099;59.528;17.886;2024-01-25T03:18:23;3.58;;;1.60;;
70832;SDS011;71099;59.528;17.886;2024-01-25T03:20:48;2.42;;;1.40;;
70832;SDS011;71099;59.528;17.886;2024-01-25T03:23:16;3.70;;;1.27;;
70832;SDS011;71099;59.528;17.886;2024-01-25T03:25:41;4.47;;;1.45;;
70832;SDS011;71099;59.528;17.886;2024-01-25T03:28:07;3.88;;;2.33;;
70832;SDS011;71099;59.528;17.886;2024-01-25T03:30:34;2.15;;;1.50;;
70832;SDS011;71099;59.528;17.886;2024-01-25T03:32:59;3.42;;;1.85;;
70832;SDS011;71099;59.528;17.886;2024-01-25T03:35:25;3.05;;;1.15;;
70832;SDS011;71099;59.528;17.886;2024-01-25T03:37:50;2.35;;;1.45;;
70832;SDS011;71099;59.528;17.886;2024-01-25T03:40:16;2.95;;;1.60;;
70832;SDS011;71099;59.528;17.886;2024-01-25T03:42:41;1.95;;;1.20;;
70832;SDS011;71099;59.528;17.886;2024-01-25T03:45:07;5.22;;;1.77;;
70832;SDS011;71099;59.528;17.886;2024-01-25T03:47:32;2.63;;;1.88;;
70832;SDS011;71099;59.528;17.886;2024-01-25T03:49:58;6.78;;;2.40;;
70832;SDS011;71099;59.528;17.886;2024-01-25T03:52:24;5.80;;;2.13;;
70832;SDS011;71099;59.528;17.886;2024-01-25T03:54:50;4.90;;;2.42;;
70832;SDS011;71099;59.528;17.886;2024-01-25T03:57:15;5.25;;;2.53;;
70832;SDS011;71099;59.528;17.886;2024-01-25T03:59:41;3.92;;;2.22;;
70832;SDS011;71099;59.528;17.886;2024-01-25T04:02:06;3.70;;;2.50;;
70832;SDS011;71099;59.528;17.886;2024-01-25T04:04:32;6.43;;;2.58;;
70832;SDS011;71099;59.528;17.886;2024-01-25T04:06:57;7.43;;;3.58;;
70832;SDS011;71099;59.528;17.886;2024-01-25T04:09:23;4.32;;;2.40;;
70832;SDS011;71099;59.528;17.886;2024-01-25T04:11:48;5.88;;;2.42;;
70832;SDS011;71099;59.528;17.886;2024-01-25T04:14:14;4.90;;;2.25;;
70832;SDS011;71099;59.528;17.886;2024-01-25T04:16:40;3.58;;;1.90;;
70832;SDS011;71099;59.528;17.886;2024-01-25T04:19:06;4.57;;;2.00;;
70832;SDS011;71099;59.528;17.886;2024-01-25T04:21:31;4.57;;;2.22;;
70832;SDS011;71099;59.528;17.886;2024-01-25T04:23:57;2.55;;;2.22;;
70832;SDS011;71099;59.528;17.886;2024-01-25T04:26:23;9.38;;;2.45;;
70832;SDS011;71099;59.528;17.886;2024-01-25T04:28:49;3.88;;;1.90;;
70832;SDS011;71099;59.528;17.886;2024-01-25T04:31:14;4.80;;;1.73;;
70832;SDS011;71099;59.528;17.886;2024-01-25T04:33:40;4.15;;;1.73;;
70832;SDS011;71099;59.528;17.886;2024-01-25T04:36:05;4.13;;;1.70;;
70832;SDS011;71099;59.528;17.886;2024-01-25T04:38:31;2.67;;;1.85;;
70832;SDS011;71099;59.528;17.886;2024-01-25T04:40:57;4.65;;;1.90;;
70832;SDS011;71099;59.528;17.886;2024-01-25T04:43:22;2.45;;;1.35;;
70832;SDS011;71099;59.528;17.886;2024-01-25T04:45:47;4.68;;;1.52;;
70832;SDS011;71099;59.528;17.886;2024-01-25T04:48:13;2.15;;;1.80;;
70832;SDS011;71099;59.528;17.886;2024-01-25T04:50:38;5.93;;;1.70;;
70832;SDS011;71099;59.528;17.886;2024-01-25T04:53:04;3.15;;;1.60;;
70832;SDS011;71099;59.528;17.886;2024-01-25T04:55:30;5.25;;;2.70;;
70832;SDS011;71099;59.528;17.886;2024-01-25T04:57:55;1.98;;;1.45;;
70832;SDS011;71099;59.528;17.886;2024-01-25T05:00:21;5.70;;;1.75;;
70832;SDS011;71099;59.528;17.886;2024-01-25T05:02:47;3.60;;;1.52;;
70832;SDS011;71099;59.528;17.886;2024-01-25T05:05:13;5.63;;;1.95;;
70832;SDS011;71099;59.528;17.886;2024-01-25T05:07:39;2.70;;;1.60;;
70832;SDS011;71099;59.528;17.886;2024-01-25T05:10:04;10.95;;;2.25;;
70832;SDS011;71099;59.528;17.886;2024-01-25T05:12:30;2.55;;;1.80;;
70832;SDS011;71099;59.528;17.886;2024-01-25T05:14:55;4.80;;;1.70;;
70832;SDS011;71099;59.528;17.886;2024-01-25T05:17:21;3.05;;;2.10;;
70832;SDS011;71099;59.528;17.886;2024-01-25T05:19:46;3.15;;;2.10;;
70832;SDS011;71099;59.528;17.886;2024-01-25T05:22:12;2.85;;;2.55;;
70832;SDS011;71099;59.528;17.886;2024-01-25T05:24:37;4.68;;;3.25;;
70832;SDS011;71099;59.528;17.886;2024-01-25T05:27:02;5.32;;;3.08;;
70832;SDS011;71099;59.528;17.886;2024-01-25T05:29:28;3.42;;;2.65;;
70832;SDS011;71099;59.528;17.886;2024-01-25T05:31:53;4.45;;;3.20;;
70832;SDS011;71099;59.528;17.886;2024-01-25T05:34:19;4.05;;;2.00;;
70832;SDS011;71099;59.528;17.886;2024-01-25T05:36:44;5.35;;;3.08;;
70832;SDS011;71099;59.528;17.886;2024-01-25T05:39:10;5.25;;;2.22;;
70832;SDS011;71099;59.528;17.886;2024-01-25T05:41:35;5.43;;;2.10;;
70832;SDS011;71099;59.528;17.886;2024-01-25T05:44:00;9.10;;;2.40;;
70832;SDS011;71099;59.528;17.886;2024-01-25T05:46:26;4.95;;;3.00;;
70832;SDS011;71099;59.528;17.886;2024-01-25T05:48:52;5.22;;;2.40;;
70832;SDS011;71099;59.528;17.886;2024-01-25T05:51:17;3.63;;;2.20;;
70832;SDS011;71099;59.528;17.886;2024-01-25T05:53:42;3.40;;;1.83;;
70832;SDS011;71099;59.528;17.886;2024-01-25T05:56:09;4.18;;;2.10;;
70832;SDS011;71099;59.528;17.886;2024-01-25T05:58:34;2.22;;;1.50;;
70832;SDS011;71099;59.528;17.886;2024-01-25T06:01:01;2.55;;;1.67;;
70832;SDS011;71099;59.528;17.886;2024-01-25T06:03:27;3.55;;;1.77;;
70832;SDS011;71099;59.528;17.886;2024-01-25T06:05:53;4.00;;;2.25;;
70832;SDS011;71099;59.528;17.886;2024-01-25T06:08:18;5.38;;;2.92;;
70832;SDS011;71099;59.528;17.886;2024-01-25T06:10:44;4.22;;;1.98;;
70832;SDS011;71099;59.528;17.886;2024-01-25T06:13:09;2.72;;;2.03;;
70832;SDS011;71099;59.528;17.886;2024-01-25T06:15:34;3.80;;;2.00;;
70832;SDS011;71099;59.528;17.886;2024-01-25T06:18:00;3.25;;;1.60;;
70832;SDS011;71099;59.528;17.886;2024-01-25T06:20:26;1.80;;;1.45;;
70832;SDS011;71099;59.528;17.886;2024-01-25T06:22:51;2.40;;;1.92;;
70832;SDS011;71099;59.528;17.886;2024-01-25T06:25:16;2.22;;;1.40;;
70832;SDS011;71099;59.528;17.886;2024-01-25T06:27:42;1.80;;;1.15;;
70832;SDS011;71099;59.528;17.886;2024-01-25T06:30:08;2.65;;;0.93;;
70832;SDS011;71099;59.528;17.886;2024-01-25T06:32:34;1.70;;;1.10;;
70832;SDS011;71099;59.528;17.886;2024-01-25T06:34:59;2.63;;;1.13;;
70832;SDS011;71099;59.528;17.886;2024-01-25T06:37:24;4.13;;;1.00;;
70832;SDS011;71099;59.528;17.886;2024-01-25T06:39:50;3.58;;;1.63;;
70832;SDS011;71099;59.528;17.886;2024-01-25T06:42:15;1.30;;;1.00;;
70832;SDS011;71099;59.528;17.886;2024-01-25T06:44:41;1.70;;;0.90;;
70832;SDS011;71099;59.528;17.886;2024-01-25T06:47:06;2.03;;;1.40;;
70832;SDS011;71099;59.528;17.886;2024-01-25T06:49:31;1.30;;;1.00;;
70832;SDS011;71099;59.528;17.886;2024-01-25T06:51:57;1.65;;;0.80;;
70832;SDS011;71099;59.528;17.886;2024-01-25T06:54:22;0.82;;;0.80;;
70832;SDS011;71099;59.528;17.886;2024-01-25T06:56:48;2.40;;;1.50;;
70832;SDS011;71099;59.528;17.886;2024-01-25T06:59:16;2.10;;;0.70;;
70832;SDS011;71099;59.528;17.886;2024-01-25T07:01:42;0.80;;;0.70;;
70832;SDS011;71099;59.528;17.886;2024-01-25T07:04:07;1.38;;;0.77;;
70832;SDS011;71099;59.528;17.886;2024-01-25T07:06:32;1.58;;;0.85;;
70832;SDS011;71099;59.528;17.886;2024-01-25T07:08:58;3.20;;;1.65;;
70832;SDS011;71099;59.528;17.886;2024-01-25T07:11:23;0.93;;;0.85;;
70832;SDS011;71099;59.528;17.886;2024-01-25T07:13:49;2.83;;;0.75;;
70832;SDS011;71099;59.528;17.886;2024-01-25T07:16:15;1.35;;;1.23;;
70832;SDS011;71099;59.528;17.886;2024-01-25T07:18:40;5.53;;;1.40;;
70832;SDS011;71099;59.528;17.886;2024-01-25T07:21:06;1.77;;;0.80;;
70832;SDS011;71099;59.528;17.886;2024-01-25T07:23:32;2.17;;;0.90;;
70832;SDS011;71099;59.528;17.886;2024-01-25T07:25:58;1.42;;;0.98;;
70832;SDS011;71099;59.528;17.886;2024-01-25T07:28:24;0.98;;;0.80;;
70832;SDS011;71099;59.528;17.886;2024-01-25T07:30:50;0.82;;;0.52;;
70832;SDS011;71099;59.528;17.886;2024-01-25T07:33:16;1.30;;;0.70;;
70832;SDS011;71099;59.528;17.886;2024-01-25T07:35:42;3.13;;;0.98;;
70832;SDS011;71099;59.528;17.886;2024-01-25T07:38:13;2.92;;;0.93;;
70832;SDS011;71099;59.528;17.886;2024-01-25T07:40:39;4.60;;;0.65;;
70832;SDS011;71099;59.528;17.886;2024-01-25T07:43:05;1.33;;;0.93;;
70832;SDS011;71099;59.528;17.886;2024-01-25T07:45:31;1.05;;;0.82;;
70832;SDS011;71099;59.528;17.886;2024-01-25T07:47:57;2.25;;;0.95;;
70832;SDS011;71099;59.528;17.886;2024-01-25T07:50:23;1.23;;;0.70;;
70832;SDS011;71099;59.528;17.886;2024-01-25T07:52:48;0.90;;;0.80;;
70832;SDS011;71099;59.528;17.886;2024-01-25T07:55:15;1.98;;;1.13;;
70832;SDS011;71099;59.528;17.886;2024-01-25T07:57:41;1.10;;;0.98;;
70832;SDS011;71099;59.528;17.886;2024-01-25T08:00:07;5.85;;;1.60;;
70832;SDS011;71099;59.528;17.886;2024-01-25T08:02:34;1.27;;;1.05;;
70832;SDS011;71099;59.528;17.886;2024-01-25T08:05:04;4.80;;;1.15;;
70832;SDS011;71099;59.528;17.886;2024-01-25T08:07:29;1.52;;;1.00;;
70832;SDS011;71099;59.528;17.886;2024-01-25T08:09:55;1.00;;;0.80;;
70832;SDS011;71099;59.528;17.886;2024-01-25T08:12:23;1.08;;;0.93;;
70832;SDS011;71099;59.528;17.886;2024-01-25T08:14:51;1.45;;;1.10;;
70832;SDS011;71099;59.528;17.886;2024-01-25T08:17:17;1.77;;;0.98;;
70832;SDS011;71099;59.528;17.886;2024-01-25T08:19:42;1.83;;;1.52;;
70832;SDS011;71099;59.528;17.886;2024-01-25T08:22:08;3.28;;;1.23;;
70832;SDS011;71099;59.528;17.886;2024-01-25T08:24:35;0.95;;;0.80;;
70832;SDS011;71099;59.528;17.886;2024-01-25T08:27:00;2.63;;;1.17;;
70832;SDS011;71099;59.528;17.886;2024-01-25T08:29:26;3.30;;;1.08;;
70832;SDS011;71099;59.528;17.886;2024-01-25T08:31:51;1.83;;;1.13;;
70832;SDS011;71099;59.528;17.886;2024-01-25T08:34:16;1.58;;;1.10;;
70832;SDS011;71099;59.528;17.886;2024-01-25T08:36:42;3.15;;;1.52;;
70832;SDS011;71099;59.528;17.886;2024-01-25T08:39:07;3.40;;;1.45;;
70832;SDS011;71099;59.528;17.886;2024-01-25T08:41:34;3.13;;;1.55;;
70832;SDS011;71099;59.528;17.886;2024-01-25T08:44:00;3.90;;;1.80;;
70832;SDS011;71099;59.528;17.886;2024-01-25T08:46:25;2.20;;;1.55;;
70832;SDS011;71099;59.528;17.886;2024-01-25T08:48:50;2.60;;;1.88;;
70832;SDS011;71099;59.528;17.886;2024-01-25T08:51:16;4.72;;;2.05;;
70832;SDS011;71099;59.528;17.886;2024-01-25T08:53:41;2.83;;;1.80;;
70832;SDS011;71099;59.528;17.886;2024-01-25T08:56:07;3.08;;;2.10;;
70832;SDS011;71099;59.528;17.886;2024-01-25T08:58:32;4.32;;;2.13;;
70832;SDS011;71099;59.528;17.886;2024-01-25T09:00:58;6.47;;;2.85;;
70832;SDS011;71099;59.528;17.886;2024-01-25T09:03:23;3.35;;;2.60;;
70832;SDS011;71099;59.528;17.886;2024-01-25T09:05:49;5.43;;;2.58;;
70832;SDS011;71099;59.528;17.886;2024-01-25T09:08:15;8.75;;;3.40;;
70832;SDS011;71099;59.528;17.886;2024-01-25T09:10:41;4.75;;;2.30;;
70832;SDS011;71099;59.528;17.886;2024-01-25T09:13:07;3.55;;;2.92;;
70832;SDS011;71099;59.528;17.886;2024-01-25T09:15:33;7.18;;;3.28;;
70832;SDS011;71099;59.528;17.886;2024-01-25T09:17:59;5.97;;;3.17;;
70832;SDS011;71099;59.528;17.886;2024-01-25T09:20:25;9.18;;;3.10;;
70832;SDS011;71099;59.528;17.886;2024-01-25T09:22:51;5.68;;;3.40;;
70832;SDS011;71099;59.528;17.886;2024-01-25T09:25:18;6.43;;;3.65;;
70832;SDS011;71099;59.528;17.886;2024-01-25T09:27:44;4.88;;;3.05;;
70832;SDS011;71099;59.528;17.886;2024-01-25T09:30:10;8.90;;;3.22;;
70832;SDS011;71099;59.528;17.886;2024-01-25T09:32:35;5.28;;;2.97;;
70832;SDS011;71099;59.528;17.886;2024-01-25T09:35:01;4.05;;;3.20;;
70832;SDS011;71099;59.528;17.886;2024-01-25T09:37:26;4.45;;;3.53;;
70832;SDS011;71099;59.528;17.886;2024-01-25T09:39:52;5.30;;;3.55;;
70832;SDS011;71099;59.528;17.886;2024-01-25T09:42:18;6.35;;;3.92;;
70832;SDS011;71099;59.528;17.886;2024-01-25T09:44:44;5.78;;;3.85;;
70832;SDS011;71099;59.528;17.886;2024-01-25T09:47:09;5.95;;;4.93;;
70832;SDS011;71099;59.528;17.886;2024-01-25T09:49:36;8.70;;;4.43;;
70832;SDS011;71099;59.528;17.886;2024-01-25T09:52:02;4.35;;;3.83;;
70832;SDS011;71099;59.528;17.886;2024-01-25T09:54:35;11.50;;;4.70;;
70832;SDS011;71099;59.528;17.886;2024-01-25T09:57:02;7.95;;;5.03;;
70832;SDS011;71099;59.528;17.886;2024-01-25T09:59:31;6.93;;;4.70;;
70832;SDS011;71099;59.528;17.886;2024-01-25T10:01:57;10.85;;;4.15;;
70832;SDS011;71099;59.528;17.886;2024-01-25T10:04:24;4.60;;;3.97;;
70832;SDS011;71099;59.528;17.886;2024-01-25T10:06:50;11.02;;;5.20;;
70832;SDS011;71099;59.528;17.886;2024-01-25T10:09:15;8.43;;;4.68;;
70832;SDS011;71099;59.528;17.886;2024-01-25T10:11:41;7.00;;;5.05;;
70832;SDS011;71099;59.528;17.886;2024-01-25T10:14:06;9.02;;;4.70;;
70832;SDS011;71099;59.528;17.886;2024-01-25T10:16:33;5.28;;;4.30;;
70832;SDS011;71099;59.528;17.886;2024-01-25T10:19:00;6.55;;;4.28;;
70832;SDS011;71099;59.528;17.886;2024-01-25T10:21:27;6.03;;;4.13;;
70832;SDS011;71099;59.528;17.886;2024-01-25T10:23:54;10.52;;;4.38;;
70832;SDS011;71099;59.528;17.886;2024-01-25T10:26:23;6.60;;;3.90;;
70832;SDS011;71099;59.528;17.886;2024-01-25T10:28:54;8.40;;;4.57;;
70832;SDS011;71099;59.528;17.886;2024-01-25T10:31:22;6.60;;;4.88;;
70832;SDS011;71099;59.528;17.886;2024-01-25T10:33:50;6.72;;;3.53;;
70832;SDS011;71099;59.528;17.886;2024-01-25T10:36:18;7.85;;;4.32;;
70832;SDS011;71099;59.528;17.886;2024-01-25T10:38:46;5.35;;;3.65;;
70832;SDS011;71099;59.528;17.886;2024-01-25T10:41:13;6.57;;;3.60;;
70832;SDS011;71099;59.528;17.886;2024-01-25T10:43:39;5.88;;;3.30;;
70832;SDS011;71099;59.528;17.886;2024-01-25T10:46:06;2.90;;;2.50;;
70832;SDS011;71099;59.528;17.886;2024-01-25T10:48:32;6.75;;;2.90;;
70832;SDS011;71099;59.528;17.886;2024-01-25T10:50:58;9.68;;;2.88;;
70832;SDS011;71099;59.528;17.886;2024-01-25T10:53:28;6.45;;;4.20;;
70832;SDS011;71099;59.528;17.886;2024-01-25T10:55:56;8.98;;;3.40;;
70832;SDS011;71099;59.528;17.886;2024-01-25T10:58:22;8.02;;;4.38;;
70832;SDS011;71099;59.528;17.886;2024-01-25T11:00:51;5.82;;;3.10;;
70832;SDS011;71099;59.528;17.886;2024-01-25T11:03:40;7.28;;;2.67;;
70832;SDS011;71099;59.528;17.886;2024-01-25T11:06:09;5.20;;;3.33;;
70832;SDS011;71099;59.528;17.886;2024-01-25T11:08:36;5.82;;;2.85;;
70832;SDS011;71099;59.528;17.886;2024-01-25T11:11:05;7.45;;;3.40;;
70832;SDS011;71099;59.528;17.886;2024-01-25T11:13:34;3.67;;;2.63;;
70832;SDS011;71099;59.528;17.886;2024-01-25T11:16:13;3.28;;;2.17;;
70832;SDS011;71099;59.528;17.886;2024-01-25T11:18:53;8.50;;;1.98;;
70832;SDS011;71099;59.528;17.886;2024-01-25T11:21:27;3.78;;;2.33;;
70832;SDS011;71099;59.528;17.886;2024-01-25T11:24:00;3.63;;;1.83;;
70832;SDS011;71099;59.528;17.886;2024-01-25T11:26:27;4.60;;;1.52;;
70832;SDS011;71099;59.528;17.886;2024-01-25T11:28:52;5.03;;;2.28;;
70832;SDS011;71099;59.528;17.886;2024-01-25T11:31:18;2.80;;;1.45;;
70832;SDS011;71099;59.528;17.886;2024-01-25T11:33:43;6.00;;;1.63;;
70832;SDS011;71099;59.528;17.886;2024-01-25T11:36:09;2.85;;;1.50;;
70832;SDS011;71099;59.528;17.886;2024-01-25T11:38:36;2.55;;;1.30;;
70832;SDS011;71099;59.528;17.886;2024-01-25T11:41:01;2.85;;;2.63;;
70832;SDS011;71099;59.528;17.886;2024-01-25T11:43:27;1.88;;;1.02;;
70832;SDS011;71099;59.528;17.886;2024-01-25T11:45:53;1.98;;;1.20;;
70832;SDS011;71099;59.528;17.886;2024-01-25T11:48:18;1.95;;;1.30;;
70832;SDS011;71099;59.528;17.886;2024-01-25T11:50:44;4.97;;;1.90;;
70832;SDS011;71099;59.528;17.886;2024-01-25T11:53:09;5.07;;;1.50;;
70832;SDS011;71099;59.528;17.886;2024-01-25T11:55:35;1.38;;;1.27;;
70832;SDS011;71099;59.528;17.886;2024-01-25T11:58:01;1.85;;;1.70;;
70832;SDS011;71099;59.528;17.886;2024-01-25T12:00:27;1.27;;;1.10;;
70832;SDS011;71099;59.528;17.886;2024-01-25T12:02:52;1.70;;;1.30;;
70832;SDS011;71099;59.528;17.886;2024-01-25T12:05:19;1.58;;;1.20;;
70832;SDS011;71099;59.528;17.886;2024-01-25T12:07:45;1.98;;;1.10;;
70832;SDS011;71099;59.528;17.886;2024-01-25T12:10:15;1.92;;;0.95;;
70832;SDS011;71099;59.528;17.886;2024-01-25T12:12:42;2.53;;;0.90;;
70832;SDS011;71099;59.528;17.886;2024-01-25T12:15:08;4.03;;;0.98;;
70832;SDS011;71099;59.528;17.886;2024-01-25T12:17:34;0.85;;;0.55;;
70832;SDS011;71099;59.528;17.886;2024-01-25T12:20:01;0.95;;;0.52;;
70832;SDS011;71099;59.528;17.886;2024-01-25T12:22:27;0.70;;;0.50;;
70832;SDS011;71099;59.528;17.886;2024-01-25T12:24:53;1.10;;;0.57;;
70832;SDS011;71099;59.528;17.886;2024-01-25T12:27:20;0.80;;;0.40;;
70832;SDS011;71099;59.528;17.886;2024-01-25T12:29:47;0.43;;;0.43;;
70832;SDS011;71099;59.528;17.886;2024-01-25T12:32:13;1.10;;;1.00;;
70832;SDS011;71099;59.528;17.886;2024-01-25T12:34:39;0.80;;;0.60;;
70832;SDS011;71099;59.528;17.886;2024-01-25T12:37:06;1.10;;;0.65;;
70832;SDS011;71099;59.528;17.886;2024-01-25T12:39:32;0.73;;;0.73;;
70832;SDS011;71099;59.528;17.886;2024-01-25T12:41:57;1.13;;;0.65;;
70832;SDS011;71099;59.528;17.886;2024-01-25T12:44:23;1.27;;;1.17;;
70832;SDS011;71099;59.528;17.886;2024-01-25T12:46:48;2.67;;;1.02;;
70832;SDS011;71099;59.528;17.886;2024-01-25T12:49:14;2.00;;;0.47;;
70832;SDS011;71099;59.528;17.886;2024-01-25T12:51:39;1.13;;;0.73;;
70832;SDS011;71099;59.528;17.886;2024-01-25T12:54:05;1.67;;;0.60;;
70832;SDS011;71099;59.528;17.886;2024-01-25T12:56:30;0.60;;;0.50;;
70832;SDS011;71099;59.528;17.886;2024-01-25T12:58:56;2.40;;;0.68;;
70832;SDS011;71099;59.528;17.886;2024-01-25T13:01:21;1.48;;;1.08;;
70832;SDS011;71099;59.528;17.886;2024-01-25T13:03:46;0.50;;;0.40;;
70832;SDS011;71099;59.528;17.886;2024-01-25T13:06:13;0.50;;;0.43;;
70832;SDS011;71099;59.528;17.886;2024-01-25T13:08:39;1.77;;;0.70;;
70832;SDS011;71099;59.528;17.886;2024-01-25T13:11:04;0.98;;;0.65;;
70832;SDS011;71099;59.528;17.886;2024-01-25T13:13:29;0.80;;;0.52;;
70832;SDS011;71099;59.528;17.886;2024-01-25T13:15:55;0.75;;;0.57;;
70832;SDS011;71099;59.528;17.886;2024-01-25T13:18:20;0.88;;;0.40;;
70832;SDS011;71099;59.528;17.886;2024-01-25T13:20:46;1.77;;;0.68;;
70832;SDS011;71099;59.528;17.886;2024-01-25T13:23:12;0.98;;;0.60;;
70832;SDS011;71099;59.528;17.886;2024-01-25T13:25:38;1.50;;;0.75;;
70832;SDS011;71099;59.528;17.886;2024-01-25T13:28:03;1.25;;;1.15;;
70832;SDS011;71099;59.528;17.886;2024-01-25T13:30:29;0.82;;;0.55;;
70832;SDS011;71099;59.528;17.886;2024-01-25T13:32:54;0.80;;;0.80;;
70832;SDS011;71099;59.528;17.886;2024-01-25T13:35:20;3.33;;;0.73;;
70832;SDS011;71099;59.528;17.886;2024-01-25T13:37:47;1.15;;;0.50;;
70832;SDS011;71099;59.528;17.886;2024-01-25T13:40:12;1.98;;;0.80;;
70832;SDS011;71099;59.528;17.886;2024-01-25T13:42:37;1.42;;;0.70;;
70832;SDS011;71099;59.528;17.886;2024-01-25T13:45:04;0.60;;;0.50;;
70832;SDS011;71099;59.528;17.886;2024-01-25T13:47:31;0.60;;;0.57;;
70832;SDS011;71099;59.528;17.886;2024-01-25T13:49:56;3.03;;;0.57;;
70832;SDS011;71099;59.528;17.886;2024-01-25T13:52:22;1.40;;;0.68;;
70832;SDS011;71099;59.528;17.886;2024-01-25T13:54:47;1.35;;;0.80;;
70832;SDS011;71099;59.528;17.886;2024-01-25T13:57:16;1.55;;;0.55;;
70832;SDS011;71099;59.528;17.886;2024-01-25T13:59:42;4.45;;;0.70;;
70832;SDS011;71099;59.528;17.886;2024-01-25T14:02:07;2.25;;;1.00;;
70832;SDS011;71099;59.528;17.886;2024-01-25T14:04:33;2.08;;;0.95;;
70832;SDS011;71099;59.528;17.886;2024-01-25T14:06:59;2.67;;;0.73;;
70832;SDS011;71099;59.528;17.886;2024-01-25T14:09:24;1.40;;;0.70;;
70832;SDS011;71099;59.528;17.886;2024-01-25T14:11:49;0.90;;;0.80;;
70832;SDS011;71099;59.528;17.886;2024-01-25T14:14:15;1.50;;;0.80;;
70832;SDS011;71099;59.528;17.886;2024-01-25T14:16:40;3.80;;;0.60;;
70832;SDS011;71099;59.528;17.886;2024-01-25T14:19:06;1.58;;;0.80;;
70832;SDS011;71099;59.528;17.886;2024-01-25T14:21:31;1.08;;;0.88;;
70832;SDS011;71099;59.528;17.886;2024-01-25T14:23:57;1.48;;;0.82;;
70832;SDS011;71099;59.528;17.886;2024-01-25T14:26:22;1.02;;;0.70;;